sensor_id;sensor_type;location;lat;lon;timestamp;P1;durP1;ratioP1;P2;durP2;ratioP2
75785;SDS011;64402;44.708;37.644;2023-02-28T00:01:29;54.13;;;20.92;;
75785;SDS011;64402;44.708;37.644;2023-02-28T00:03:56;18.60;;;7.85;;
75785;SDS011;64402;44.708;37.644;2023-02-28T00:06:22;12.02;;;5.55;;
75785;SDS011;64402;44.708;37.644;2023-02-28T00:08:49;15.15;;;5.80;;
75785;SDS011;64402;44.708;37.644;2023-02-28T00:11:16;11.88;;;5.10;;
75785;SDS011;64402;44.708;37.644;2023-02-28T00:13:44;45.00;;;17.35;;
75785;SDS011;64402;44.708;37.644;2023-02-28T00:16:13;26.45;;;10.68;;
75785;SDS011;64402;44.708;37.644;2023-02-28T00:18:44;28.17;;;10.85;;
75785;SDS011;64402;44.708;37.644;2023-02-28T00:21:10;13.10;;;6.50;;
75785;SDS011;64402;44.708;37.644;2023-02-28T00:23:37;19.65;;;8.13;;
75785;SDS011;64402;44.708;37.644;2023-02-28T00:26:03;15.25;;;6.68;;
75785;SDS011;64402;44.708;37.644;2023-02-28T00:28:30;12.52;;;5.50;;
75785;SDS011;64402;44.708;37.644;2023-02-28T00:30:57;13.57;;;5.32;;
75785;SDS011;64402;44.708;37.644;2023-02-28T00:33:26;16.17;;;5.57;;
75785;SDS011;64402;44.708;37.644;2023-02-28T00:36:00;11.02;;;5.18;;
75785;SDS011;64402;44.708;37.644;2023-02-28T00:38:31;9.45;;;4.80;;
75785;SDS011;64402;44.708;37.644;2023-02-28T00:40:58;10.98;;;5.07;;
75785;SDS011;64402;44.708;37.644;2023-02-28T00:43:30;12.68;;;5.35;;
75785;SDS011;64402;44.708;37.644;2023-02-28T00:46:01;10.90;;;5.15;;
75785;SDS011;64402;44.708;37.644;2023-02-28T00:48:28;12.15;;;5.35;;
75785;SDS011;64402;44.708;37.644;2023-02-28T00:50:54;15.60;;;5.50;;
75785;SDS011;64402;44.708;37.644;2023-02-28T00:53:21;14.38;;;5.60;;
75785;SDS011;64402;44.708;37.644;2023-02-28T00:55:48;14.15;;;5.82;;
75785;SDS011;64402;44.708;37.644;2023-02-28T00:58:15;12.68;;;5.50;;
75785;SDS011;64402;44.708;37.644;2023-02-28T01:00:42;13.10;;;5.07;;
75785;SDS011;64402;44.708;37.644;2023-02-28T01:03:08;12.68;;;5.63;;
75785;SDS011;64402;44.708;37.644;2023-02-28T01:05:34;13.13;;;6.25;;
75785;SDS011;64402;44.708;37.644;2023-02-28T01:08:01;15.95;;;6.40;;
75785;SDS011;64402;44.708;37.644;2023-02-28T01:10:27;15.88;;;6.20;;
75785;SDS011;64402;44.708;37.644;2023-02-28T01:12:57;16.00;;;6.05;;
75785;SDS011;64402;44.708;37.644;2023-02-28T01:15:23;16.50;;;6.70;;
75785;SDS011;64402;44.708;37.644;2023-02-28T01:17:52;13.70;;;6.00;;
75785;SDS011;64402;44.708;37.644;2023-02-28T01:20:19;11.25;;;5.45;;
75785;SDS011;64402;44.708;37.644;2023-02-28T01:22:45;10.95;;;5.22;;
75785;SDS011;64402;44.708;37.644;2023-02-28T01:25:12;11.77;;;5.90;;
75785;SDS011;64402;44.708;37.644;2023-02-28T01:27:39;12.00;;;6.32;;
75785;SDS011;64402;44.708;37.644;2023-02-28T01:30:06;18.52;;;8.05;;
75785;SDS011;64402;44.708;37.644;2023-02-28T01:32:35;41.90;;;17.50;;
75785;SDS011;64402;44.708;37.644;2023-02-28T01:35:02;26.92;;;11.32;;
75785;SDS011;64402;44.708;37.644;2023-02-28T01:37:29;16.92;;;7.70;;
75785;SDS011;64402;44.708;37.644;2023-02-28T01:39:55;12.05;;;5.45;;
75785;SDS011;64402;44.708;37.644;2023-02-28T01:42:22;12.30;;;5.57;;
75785;SDS011;64402;44.708;37.644;2023-02-28T01:47:29;10.07;;;5.45;;
75785;SDS011;64402;44.708;37.644;2023-02-28T01:49:58;15.07;;;5.65;;
75785;SDS011;64402;44.708;37.644;2023-02-28T01:52:27;20.02;;;8.45;;
75785;SDS011;64402;44.708;37.644;2023-02-28T01:54:55;12.15;;;6.32;;
75785;SDS011;64402;44.708;37.644;2023-02-28T01:57:29;14.25;;;6.40;;
75785;SDS011;64402;44.708;37.644;2023-02-28T02:00:05;11.00;;;5.47;;
75785;SDS011;64402;44.708;37.644;2023-02-28T02:02:41;13.63;;;5.75;;
75785;SDS011;64402;44.708;37.644;2023-02-28T02:05:15;18.27;;;9.00;;
75785;SDS011;64402;44.708;37.644;2023-02-28T02:07:45;19.45;;;7.30;;
75785;SDS011;64402;44.708;37.644;2023-02-28T02:10:15;12.25;;;5.65;;
75785;SDS011;64402;44.708;37.644;2023-02-28T02:15:46;12.15;;;4.90;;
75785;SDS011;64402;44.708;37.644;2023-02-28T02:18:28;13.93;;;5.18;;
75785;SDS011;64402;44.708;37.644;2023-02-28T02:24:49;15.35;;;5.18;;
75785;SDS011;64402;44.708;37.644;2023-02-28T02:27:23;21.40;;;9.75;;
75785;SDS011;64402;44.708;37.644;2023-02-28T02:32:53;10.65;;;5.10;;
75785;SDS011;64402;44.708;37.644;2023-02-28T02:35:52;13.70;;;5.07;;
75785;SDS011;64402;44.708;37.644;2023-02-28T02:40:59;13.43;;;5.38;;
75785;SDS011;64402;44.708;37.644;2023-02-28T02:43:48;15.80;;;6.05;;
75785;SDS011;64402;44.708;37.644;2023-02-28T02:46:38;15.30;;;5.93;;
75785;SDS011;64402;44.708;37.644;2023-02-28T02:49:10;13.23;;;6.65;;
75785;SDS011;64402;44.708;37.644;2023-02-28T02:52:03;13.02;;;6.28;;
75785;SDS011;64402;44.708;37.644;2023-02-28T02:54:42;15.77;;;6.05;;
75785;SDS011;64402;44.708;37.644;2023-02-28T02:57:13;12.23;;;4.88;;
75785;SDS011;64402;44.708;37.644;2023-02-28T02:59:45;15.35;;;6.40;;
75785;SDS011;64402;44.708;37.644;2023-02-28T03:02:15;17.40;;;6.72;;
75785;SDS011;64402;44.708;37.644;2023-02-28T03:04:43;19.80;;;7.32;;
75785;SDS011;64402;44.708;37.644;2023-02-28T03:07:14;15.00;;;6.50;;
75785;SDS011;64402;44.708;37.644;2023-02-28T03:09:53;11.90;;;4.60;;
75785;SDS011;64402;44.708;37.644;2023-02-28T03:12:21;10.05;;;4.88;;
75785;SDS011;64402;44.708;37.644;2023-02-28T03:23:38;10.25;;;5.28;;
75785;SDS011;64402;44.708;37.644;2023-02-28T03:26:22;13.10;;;6.03;;
75785;SDS011;64402;44.708;37.644;2023-02-28T03:28:53;22.38;;;10.85;;
75785;SDS011;64402;44.708;37.644;2023-02-28T03:34:12;13.90;;;6.50;;
75785;SDS011;64402;44.708;37.644;2023-02-28T03:36:45;12.63;;;5.28;;
75785;SDS011;64402;44.708;37.644;2023-02-28T03:39:18;11.13;;;4.85;;
75785;SDS011;64402;44.708;37.644;2023-02-28T03:41:50;10.30;;;4.70;;
75785;SDS011;64402;44.708;37.644;2023-02-28T03:44:41;11.95;;;5.15;;
75785;SDS011;64402;44.708;37.644;2023-02-28T03:47:21;49.97;;;14.88;;
75785;SDS011;64402;44.708;37.644;2023-02-28T03:52:35;14.82;;;6.22;;
75785;SDS011;64402;44.708;37.644;2023-02-28T03:55:07;14.45;;;6.18;;
75785;SDS011;64402;44.708;37.644;2023-02-28T03:57:47;13.65;;;6.40;;
75785;SDS011;64402;44.708;37.644;2023-02-28T04:00:20;21.92;;;5.95;;
75785;SDS011;64402;44.708;37.644;2023-02-28T04:02:50;20.13;;;7.88;;
75785;SDS011;64402;44.708;37.644;2023-02-28T04:07:45;82.40;;;24.50;;
75785;SDS011;64402;44.708;37.644;2023-02-28T04:10:11;87.85;;;26.30;;
75785;SDS011;64402;44.708;37.644;2023-02-28T04:12:39;88.28;;;23.30;;
75785;SDS011;64402;44.708;37.644;2023-02-28T04:15:05;29.55;;;10.02;;
75785;SDS011;64402;44.708;37.644;2023-02-28T04:17:33;21.30;;;9.32;;
75785;SDS011;64402;44.708;37.644;2023-02-28T04:19:59;15.98;;;7.63;;
75785;SDS011;64402;44.708;37.644;2023-02-28T04:22:25;15.73;;;5.93;;
75785;SDS011;64402;44.708;37.644;2023-02-28T04:24:52;11.18;;;5.20;;
75785;SDS011;64402;44.708;37.644;2023-02-28T04:29:46;20.55;;;9.02;;
75785;SDS011;64402;44.708;37.644;2023-02-28T04:32:13;20.95;;;8.60;;
75785;SDS011;64402;44.708;37.644;2023-02-28T04:34:39;18.90;;;8.57;;
75785;SDS011;64402;44.708;37.644;2023-02-28T04:37:05;25.25;;;9.23;;
75785;SDS011;64402;44.708;37.644;2023-02-28T04:39:34;31.20;;;9.48;;
75785;SDS011;64402;44.708;37.644;2023-02-28T04:42:02;16.95;;;7.40;;
75785;SDS011;64402;44.708;37.644;2023-02-28T04:44:29;48.35;;;17.10;;
75785;SDS011;64402;44.708;37.644;2023-02-28T04:46:55;31.00;;;10.60;;
75785;SDS011;64402;44.708;37.644;2023-02-28T04:49:22;16.02;;;6.70;;
75785;SDS011;64402;44.708;37.644;2023-02-28T04:51:48;23.67;;;8.57;;
75785;SDS011;64402;44.708;37.644;2023-02-28T04:54:15;19.65;;;7.22;;
75785;SDS011;64402;44.708;37.644;2023-02-28T04:56:43;23.42;;;7.63;;
75785;SDS011;64402;44.708;37.644;2023-02-28T04:59:10;23.67;;;9.88;;
75785;SDS011;64402;44.708;37.644;2023-02-28T05:01:36;17.92;;;8.70;;
75785;SDS011;64402;44.708;37.644;2023-02-28T05:04:03;21.40;;;8.35;;
75785;SDS011;64402;44.708;37.644;2023-02-28T05:06:31;19.80;;;8.27;;
75785;SDS011;64402;44.708;37.644;2023-02-28T05:08:59;21.50;;;8.25;;
75785;SDS011;64402;44.708;37.644;2023-02-28T05:11:27;17.65;;;8.70;;
75785;SDS011;64402;44.708;37.644;2023-02-28T05:13:59;19.63;;;8.43;;
75785;SDS011;64402;44.708;37.644;2023-02-28T05:16:25;19.05;;;8.85;;
75785;SDS011;64402;44.708;37.644;2023-02-28T05:18:52;20.35;;;9.05;;
75785;SDS011;64402;44.708;37.644;2023-02-28T05:21:27;18.27;;;7.50;;
75785;SDS011;64402;44.708;37.644;2023-02-28T05:24:02;17.73;;;7.95;;
75785;SDS011;64402;44.708;37.644;2023-02-28T05:26:31;20.08;;;7.70;;
75785;SDS011;64402;44.708;37.644;2023-02-28T05:29:00;27.50;;;9.55;;
75785;SDS011;64402;44.708;37.644;2023-02-28T05:31:27;19.63;;;8.02;;
75785;SDS011;64402;44.708;37.644;2023-02-28T05:33:53;21.33;;;8.93;;
75785;SDS011;64402;44.708;37.644;2023-02-28T05:36:21;20.95;;;10.32;;
75785;SDS011;64402;44.708;37.644;2023-02-28T05:41:14;17.67;;;9.27;;
75785;SDS011;64402;44.708;37.644;2023-02-28T05:43:41;16.65;;;7.50;;
75785;SDS011;64402;44.708;37.644;2023-02-28T05:46:09;22.85;;;10.05;;
75785;SDS011;64402;44.708;37.644;2023-02-28T05:48:37;26.30;;;10.18;;
75785;SDS011;64402;44.708;37.644;2023-02-28T05:53:32;18.40;;;8.43;;
75785;SDS011;64402;44.708;37.644;2023-02-28T05:55:59;21.10;;;8.80;;
75785;SDS011;64402;44.708;37.644;2023-02-28T05:58:25;17.67;;;8.02;;
75785;SDS011;64402;44.708;37.644;2023-02-28T06:00:56;15.05;;;8.32;;
75785;SDS011;64402;44.708;37.644;2023-02-28T06:03:23;17.98;;;7.95;;
75785;SDS011;64402;44.708;37.644;2023-02-28T06:05:50;21.85;;;10.02;;
75785;SDS011;64402;44.708;37.644;2023-02-28T06:08:17;23.45;;;8.77;;
75785;SDS011;64402;44.708;37.644;2023-02-28T06:10:44;17.67;;;9.30;;
75785;SDS011;64402;44.708;37.644;2023-02-28T06:13:10;19.52;;;9.38;;
75785;SDS011;64402;44.708;37.644;2023-02-28T06:15:38;18.85;;;8.82;;
75785;SDS011;64402;44.708;37.644;2023-02-28T06:18:05;23.67;;;9.27;;
75785;SDS011;64402;44.708;37.644;2023-02-28T06:20:31;20.40;;;9.35;;
75785;SDS011;64402;44.708;37.644;2023-02-28T06:22:58;16.15;;;7.35;;
75785;SDS011;64402;44.708;37.644;2023-02-28T06:25:25;14.77;;;7.05;;
75785;SDS011;64402;44.708;37.644;2023-02-28T06:27:53;16.67;;;7.85;;
75785;SDS011;64402;44.708;37.644;2023-02-28T06:30:21;14.40;;;6.65;;
75785;SDS011;64402;44.708;37.644;2023-02-28T06:32:50;15.23;;;7.35;;
75785;SDS011;64402;44.708;37.644;2023-02-28T06:35:17;15.55;;;7.93;;
75785;SDS011;64402;44.708;37.644;2023-02-28T06:37:44;20.73;;;8.15;;
75785;SDS011;64402;44.708;37.644;2023-02-28T06:40:10;16.75;;;8.52;;
75785;SDS011;64402;44.708;37.644;2023-02-28T06:42:38;17.13;;;8.23;;
75785;SDS011;64402;44.708;37.644;2023-02-28T06:45:05;16.35;;;7.75;;
75785;SDS011;64402;44.708;37.644;2023-02-28T06:47:38;18.30;;;8.20;;
75785;SDS011;64402;44.708;37.644;2023-02-28T06:50:06;15.05;;;6.70;;
75785;SDS011;64402;44.708;37.644;2023-02-28T06:52:35;18.60;;;6.82;;
75785;SDS011;64402;44.708;37.644;2023-02-28T06:55:05;14.52;;;7.32;;
75785;SDS011;64402;44.708;37.644;2023-02-28T06:57:33;18.02;;;8.90;;
75785;SDS011;64402;44.708;37.644;2023-02-28T07:00:02;43.78;;;22.48;;
75785;SDS011;64402;44.708;37.644;2023-02-28T07:02:33;50.72;;;26.08;;
75785;SDS011;64402;44.708;37.644;2023-02-28T07:05:01;24.27;;;12.52;;
75785;SDS011;64402;44.708;37.644;2023-02-28T07:07:27;20.92;;;8.30;;
75785;SDS011;64402;44.708;37.644;2023-02-28T07:09:54;27.33;;;8.45;;
75785;SDS011;64402;44.708;37.644;2023-02-28T07:12:20;19.92;;;7.50;;
75785;SDS011;64402;44.708;37.644;2023-02-28T07:14:46;23.00;;;7.85;;
75785;SDS011;64402;44.708;37.644;2023-02-28T07:17:13;13.88;;;5.68;;
75785;SDS011;64402;44.708;37.644;2023-02-28T07:19:39;17.50;;;5.72;;
75785;SDS011;64402;44.708;37.644;2023-02-28T07:22:06;16.27;;;5.82;;
75785;SDS011;64402;44.708;37.644;2023-02-28T07:24:33;15.88;;;5.32;;
75785;SDS011;64402;44.708;37.644;2023-02-28T07:26:59;14.88;;;5.18;;
75785;SDS011;64402;44.708;37.644;2023-02-28T07:29:26;14.80;;;5.28;;
75785;SDS011;64402;44.708;37.644;2023-02-28T07:31:53;15.75;;;5.80;;
75785;SDS011;64402;44.708;37.644;2023-02-28T07:34:19;12.10;;;5.70;;
75785;SDS011;64402;44.708;37.644;2023-02-28T07:36:46;13.45;;;5.53;;
75785;SDS011;64402;44.708;37.644;2023-02-28T07:39:13;12.68;;;5.78;;
75785;SDS011;64402;44.708;37.644;2023-02-28T07:41:39;15.65;;;5.90;;
75785;SDS011;64402;44.708;37.644;2023-02-28T07:44:09;13.23;;;6.35;;
75785;SDS011;64402;44.708;37.644;2023-02-28T07:46:36;15.40;;;6.78;;
75785;SDS011;64402;44.708;37.644;2023-02-28T07:49:03;18.85;;;9.88;;
75785;SDS011;64402;44.708;37.644;2023-02-28T07:51:31;22.23;;;7.40;;
75785;SDS011;64402;44.708;37.644;2023-02-28T07:53:58;23.90;;;11.32;;
75785;SDS011;64402;44.708;37.644;2023-02-28T07:56:25;19.23;;;7.63;;
75785;SDS011;64402;44.708;37.644;2023-02-28T07:58:51;20.40;;;7.10;;
75785;SDS011;64402;44.708;37.644;2023-02-28T08:01:18;15.57;;;6.32;;
75785;SDS011;64402;44.708;37.644;2023-02-28T08:03:45;18.58;;;6.95;;
75785;SDS011;64402;44.708;37.644;2023-02-28T08:06:16;16.77;;;6.43;;
75785;SDS011;64402;44.708;37.644;2023-02-28T08:08:45;20.52;;;6.53;;
75785;SDS011;64402;44.708;37.644;2023-02-28T08:11:11;20.08;;;6.75;;
75785;SDS011;64402;44.708;37.644;2023-02-28T08:13:38;17.08;;;5.93;;
75785;SDS011;64402;44.708;37.644;2023-02-28T08:16:05;21.38;;;7.10;;
75785;SDS011;64402;44.708;37.644;2023-02-28T08:18:31;16.73;;;6.43;;
75785;SDS011;64402;44.708;37.644;2023-02-28T08:20:58;17.70;;;6.80;;
75785;SDS011;64402;44.708;37.644;2023-02-28T08:23:25;13.00;;;5.38;;
75785;SDS011;64402;44.708;37.644;2023-02-28T08:25:55;21.77;;;6.55;;
75785;SDS011;64402;44.708;37.644;2023-02-28T08:28:22;15.30;;;5.93;;
75785;SDS011;64402;44.708;37.644;2023-02-28T08:30:49;16.63;;;5.97;;
75785;SDS011;64402;44.708;37.644;2023-02-28T08:33:15;13.00;;;5.25;;
75785;SDS011;64402;44.708;37.644;2023-02-28T08:35:42;10.05;;;4.80;;
75785;SDS011;64402;44.708;37.644;2023-02-28T08:38:08;11.32;;;5.15;;
75785;SDS011;64402;44.708;37.644;2023-02-28T08:40:34;13.73;;;5.22;;
75785;SDS011;64402;44.708;37.644;2023-02-28T08:43:01;14.60;;;5.00;;
75785;SDS011;64402;44.708;37.644;2023-02-28T08:45:27;12.18;;;4.75;;
75785;SDS011;64402;44.708;37.644;2023-02-28T08:47:54;9.15;;;4.75;;
75785;SDS011;64402;44.708;37.644;2023-02-28T08:50:21;15.00;;;5.07;;
75785;SDS011;64402;44.708;37.644;2023-02-28T08:52:49;11.55;;;4.93;;
75785;SDS011;64402;44.708;37.644;2023-02-28T08:55:15;12.63;;;4.22;;
75785;SDS011;64402;44.708;37.644;2023-02-28T08:57:42;8.43;;;4.20;;
75785;SDS011;64402;44.708;37.644;2023-02-28T09:00:08;13.32;;;5.15;;
75785;SDS011;64402;44.708;37.644;2023-02-28T09:02:38;15.35;;;4.63;;
75785;SDS011;64402;44.708;37.644;2023-02-28T09:05:04;12.13;;;4.80;;
75785;SDS011;64402;44.708;37.644;2023-02-28T09:07:31;11.48;;;4.75;;
75785;SDS011;64402;44.708;37.644;2023-02-28T09:09:57;10.82;;;4.57;;
75785;SDS011;64402;44.708;37.644;2023-02-28T09:12:25;14.50;;;4.90;;
75785;SDS011;64402;44.708;37.644;2023-02-28T09:14:53;12.52;;;4.93;;
75785;SDS011;64402;44.708;37.644;2023-02-28T09:17:19;11.63;;;5.15;;
75785;SDS011;64402;44.708;37.644;2023-02-28T09:19:47;14.23;;;5.75;;
75785;SDS011;64402;44.708;37.644;2023-02-28T09:22:14;13.23;;;5.15;;
75785;SDS011;64402;44.708;37.644;2023-02-28T09:24:41;11.88;;;5.50;;
75785;SDS011;64402;44.708;37.644;2023-02-28T09:27:07;13.25;;;5.28;;
75785;SDS011;64402;44.708;37.644;2023-02-28T09:29:34;10.75;;;4.80;;
75785;SDS011;64402;44.708;37.644;2023-02-28T09:32:01;13.27;;;5.15;;
75785;SDS011;64402;44.708;37.644;2023-02-28T09:34:28;10.32;;;4.90;;
75785;SDS011;64402;44.708;37.644;2023-02-28T09:36:57;9.63;;;4.72;;
75785;SDS011;64402;44.708;37.644;2023-02-28T09:39:24;24.88;;;10.52;;
75785;SDS011;64402;44.708;37.644;2023-02-28T09:41:55;16.27;;;7.20;;
75785;SDS011;64402;44.708;37.644;2023-02-28T09:44:37;16.58;;;6.50;;
75785;SDS011;64402;44.708;37.644;2023-02-28T09:47:16;16.38;;;6.15;;
75785;SDS011;64402;44.708;37.644;2023-02-28T09:49:51;13.05;;;5.32;;
75785;SDS011;64402;44.708;37.644;2023-02-28T09:52:21;21.60;;;7.93;;
75785;SDS011;64402;44.708;37.644;2023-02-28T09:54:54;11.88;;;5.40;;
75785;SDS011;64402;44.708;37.644;2023-02-28T09:57:32;8.43;;;4.35;;
75785;SDS011;64402;44.708;37.644;2023-02-28T10:05:52;11.15;;;4.65;;
75785;SDS011;64402;44.708;37.644;2023-02-28T10:09:02;12.55;;;4.53;;
75785;SDS011;64402;44.708;37.644;2023-02-28T10:11:42;10.02;;;4.75;;
75785;SDS011;64402;44.708;37.644;2023-02-28T10:14:12;11.88;;;4.20;;
75785;SDS011;64402;44.708;37.644;2023-02-28T10:16:46;12.25;;;5.65;;
75785;SDS011;64402;44.708;37.644;2023-02-28T10:22:05;10.82;;;4.20;;
75785;SDS011;64402;44.708;37.644;2023-02-28T10:24:40;10.38;;;4.35;;
75785;SDS011;64402;44.708;37.644;2023-02-28T10:29:52;10.30;;;4.32;;
75785;SDS011;64402;44.708;37.644;2023-02-28T10:32:21;11.88;;;4.78;;
75785;SDS011;64402;44.708;37.644;2023-02-28T10:37:39;8.40;;;4.50;;
75785;SDS011;64402;44.708;37.644;2023-02-28T10:42:54;11.45;;;4.35;;
75785;SDS011;64402;44.708;37.644;2023-02-28T10:45:22;8.48;;;4.40;;
75785;SDS011;64402;44.708;37.644;2023-02-28T10:47:51;7.57;;;3.97;;
75785;SDS011;64402;44.708;37.644;2023-02-28T10:50:29;10.68;;;4.35;;
75785;SDS011;64402;44.708;37.644;2023-02-28T10:53:49;11.25;;;4.50;;
75785;SDS011;64402;44.708;37.644;2023-02-28T10:55:56;9.68;;;4.10;;
75785;SDS011;64402;44.708;37.644;2023-02-28T10:58:42;9.93;;;4.22;;
75785;SDS011;64402;44.708;37.644;2023-02-28T11:01:24;18.42;;;5.13;;
75785;SDS011;64402;44.708;37.644;2023-02-28T11:03:51;12.90;;;5.05;;
75785;SDS011;64402;44.708;37.644;2023-02-28T11:06:22;10.52;;;5.05;;
75785;SDS011;64402;44.708;37.644;2023-02-28T11:08:52;9.90;;;4.13;;
75785;SDS011;64402;44.708;37.644;2023-02-28T11:11:24;10.77;;;4.20;;
75785;SDS011;64402;44.708;37.644;2023-02-28T11:13:53;11.48;;;5.00;;
75785;SDS011;64402;44.708;37.644;2023-02-28T11:16:23;10.07;;;4.18;;
75785;SDS011;64402;44.708;37.644;2023-02-28T11:18:58;10.38;;;4.45;;
75785;SDS011;64402;44.708;37.644;2023-02-28T11:21:26;9.00;;;4.30;;
75785;SDS011;64402;44.708;37.644;2023-02-28T11:24:05;9.68;;;4.75;;
75785;SDS011;64402;44.708;37.644;2023-02-28T11:26:46;9.07;;;4.78;;
75785;SDS011;64402;44.708;37.644;2023-02-28T11:29:18;12.77;;;4.88;;
75785;SDS011;64402;44.708;37.644;2023-02-28T11:34:39;10.90;;;4.85;;
75785;SDS011;64402;44.708;37.644;2023-02-28T11:37:09;14.00;;;4.65;;
75785;SDS011;64402;44.708;37.644;2023-02-28T11:39:44;11.02;;;4.57;;
75785;SDS011;64402;44.708;37.644;2023-02-28T11:44:56;13.68;;;4.70;;
75785;SDS011;64402;44.708;37.644;2023-02-28T11:47:56;9.43;;;4.65;;
75785;SDS011;64402;44.708;37.644;2023-02-28T11:56:03;17.42;;;5.50;;
75785;SDS011;64402;44.708;37.644;2023-02-28T12:01:29;16.17;;;6.57;;
75785;SDS011;64402;44.708;37.644;2023-02-28T12:04:25;14.13;;;6.20;;
75785;SDS011;64402;44.708;37.644;2023-02-28T12:15:17;14.80;;;6.53;;
75785;SDS011;64402;44.708;37.644;2023-02-28T12:18:07;13.88;;;5.97;;
75785;SDS011;64402;44.708;37.644;2023-02-28T12:20:46;17.67;;;5.40;;
75785;SDS011;64402;44.708;37.644;2023-02-28T12:28:46;11.10;;;4.60;;
75785;SDS011;64402;44.708;37.644;2023-02-28T12:31:38;10.73;;;3.67;;
75785;SDS011;64402;44.708;37.644;2023-02-28T12:34:15;12.43;;;3.80;;
75785;SDS011;64402;44.708;37.644;2023-02-28T12:36:49;11.70;;;4.22;;
75785;SDS011;64402;44.708;37.644;2023-02-28T12:39:19;8.48;;;3.15;;
75785;SDS011;64402;44.708;37.644;2023-02-28T12:41:56;11.23;;;3.75;;
75785;SDS011;64402;44.708;37.644;2023-02-28T12:44:49;13.95;;;4.07;;
75785;SDS011;64402;44.708;37.644;2023-02-28T12:47:19;8.35;;;3.40;;
75785;SDS011;64402;44.708;37.644;2023-02-28T12:49:58;8.23;;;3.47;;
75785;SDS011;64402;44.708;37.644;2023-02-28T12:58:39;17.48;;;5.97;;
75785;SDS011;64402;44.708;37.644;2023-02-28T13:09:57;13.30;;;5.80;;
75785;SDS011;64402;44.708;37.644;2023-02-28T13:12:26;16.55;;;6.68;;
75785;SDS011;64402;44.708;37.644;2023-02-28T13:15:16;18.63;;;7.05;;
75785;SDS011;64402;44.708;37.644;2023-02-28T13:17:40;18.73;;;8.02;;
75785;SDS011;64402;44.708;37.644;2023-02-28T13:29:02;15.10;;;8.02;;
75785;SDS011;64402;44.708;37.644;2023-02-28T13:34:40;19.13;;;8.32;;
75785;SDS011;64402;44.708;37.644;2023-02-28T13:39:51;20.65;;;9.55;;
75785;SDS011;64402;44.708;37.644;2023-02-28T13:47:29;17.85;;;8.68;;
75785;SDS011;64402;44.708;37.644;2023-02-28T14:06:50;19.63;;;10.02;;
75785;SDS011;64402;44.708;37.644;2023-02-28T14:11:52;25.33;;;10.52;;
75785;SDS011;64402;44.708;37.644;2023-02-28T14:17:01;23.00;;;11.02;;
75785;SDS011;64402;44.708;37.644;2023-02-28T14:19:33;22.17;;;9.55;;
75785;SDS011;64402;44.708;37.644;2023-02-28T14:22:12;22.98;;;10.10;;
75785;SDS011;64402;44.708;37.644;2023-02-28T14:36:04;18.52;;;9.02;;
75785;SDS011;64402;44.708;37.644;2023-02-28T14:38:37;20.25;;;9.18;;
75785;SDS011;64402;44.708;37.644;2023-02-28T14:41:23;20.08;;;9.65;;
75785;SDS011;64402;44.708;37.644;2023-02-28T14:43:55;26.15;;;10.27;;
75785;SDS011;64402;44.708;37.644;2023-02-28T14:46:27;21.95;;;10.07;;
75785;SDS011;64402;44.708;37.644;2023-02-28T14:49:03;21.70;;;9.70;;
75785;SDS011;64402;44.708;37.644;2023-02-28T14:51:38;19.65;;;9.45;;
75785;SDS011;64402;44.708;37.644;2023-02-28T14:54:04;23.08;;;10.77;;
75785;SDS011;64402;44.708;37.644;2023-02-28T14:56:37;27.48;;;11.18;;
75785;SDS011;64402;44.708;37.644;2023-02-28T14:59:05;22.23;;;8.55;;
75785;SDS011;64402;44.708;37.644;2023-02-28T15:04:43;20.48;;;10.70;;
75785;SDS011;64402;44.708;37.644;2023-02-28T15:07:38;23.25;;;11.43;;
75785;SDS011;64402;44.708;37.644;2023-02-28T15:12:56;21.42;;;10.10;;
75785;SDS011;64402;44.708;37.644;2023-02-28T15:15:25;20.63;;;9.63;;
75785;SDS011;64402;44.708;37.644;2023-02-28T15:18:04;22.20;;;8.23;;
75785;SDS011;64402;44.708;37.644;2023-02-28T15:20:33;23.75;;;10.98;;
75785;SDS011;64402;44.708;37.644;2023-02-28T15:23:09;24.05;;;10.18;;
75785;SDS011;64402;44.708;37.644;2023-02-28T15:25:36;20.27;;;9.75;;
75785;SDS011;64402;44.708;37.644;2023-02-28T15:28:03;23.92;;;8.18;;
75785;SDS011;64402;44.708;37.644;2023-02-28T15:30:29;17.00;;;7.78;;
75785;SDS011;64402;44.708;37.644;2023-02-28T15:35:43;15.85;;;6.63;;
75785;SDS011;64402;44.708;37.644;2023-02-28T15:38:23;14.38;;;6.40;;
75785;SDS011;64402;44.708;37.644;2023-02-28T15:40:53;12.43;;;5.28;;
75785;SDS011;64402;44.708;37.644;2023-02-28T15:45:59;15.70;;;6.60;;
75785;SDS011;64402;44.708;37.644;2023-02-28T15:49:12;13.82;;;6.43;;
75785;SDS011;64402;44.708;37.644;2023-02-28T15:51:26;16.38;;;6.20;;
75785;SDS011;64402;44.708;37.644;2023-02-28T15:54:04;25.55;;;6.18;;
75785;SDS011;64402;44.708;37.644;2023-02-28T15:56:33;15.93;;;5.38;;
75785;SDS011;64402;44.708;37.644;2023-02-28T15:59:05;14.57;;;5.40;;
75785;SDS011;64402;44.708;37.644;2023-02-28T16:01:33;18.05;;;6.35;;
75785;SDS011;64402;44.708;37.644;2023-02-28T16:04:03;16.13;;;6.00;;
75785;SDS011;64402;44.708;37.644;2023-02-28T16:07:00;15.10;;;6.75;;
75785;SDS011;64402;44.708;37.644;2023-02-28T16:09:27;12.55;;;5.82;;
75785;SDS011;64402;44.708;37.644;2023-02-28T16:14:26;13.90;;;5.20;;
75785;SDS011;64402;44.708;37.644;2023-02-28T16:16:56;14.32;;;5.80;;
75785;SDS011;64402;44.708;37.644;2023-02-28T16:19:27;14.15;;;6.07;;
75785;SDS011;64402;44.708;37.644;2023-02-28T16:21:54;15.25;;;6.32;;
75785;SDS011;64402;44.708;37.644;2023-02-28T16:24:21;15.07;;;6.05;;
75785;SDS011;64402;44.708;37.644;2023-02-28T16:26:48;12.18;;;5.65;;
75785;SDS011;64402;44.708;37.644;2023-02-28T16:29:23;12.02;;;4.80;;
75785;SDS011;64402;44.708;37.644;2023-02-28T16:31:52;13.43;;;6.05;;
75785;SDS011;64402;44.708;37.644;2023-02-28T16:34:19;12.70;;;5.60;;
75785;SDS011;64402;44.708;37.644;2023-02-28T16:36:47;13.93;;;5.35;;
75785;SDS011;64402;44.708;37.644;2023-02-28T16:41:41;12.38;;;4.35;;
75785;SDS011;64402;44.708;37.644;2023-02-28T16:44:13;10.50;;;4.25;;
75785;SDS011;64402;44.708;37.644;2023-02-28T16:46:50;9.70;;;4.50;;
75785;SDS011;64402;44.708;37.644;2023-02-28T16:49:16;10.23;;;4.03;;
75785;SDS011;64402;44.708;37.644;2023-02-28T16:51:42;10.70;;;4.80;;
75785;SDS011;64402;44.708;37.644;2023-02-28T16:54:08;11.88;;;4.75;;
75785;SDS011;64402;44.708;37.644;2023-02-28T16:56:34;11.07;;;4.45;;
75785;SDS011;64402;44.708;37.644;2023-02-28T16:59:01;11.43;;;4.78;;
75785;SDS011;64402;44.708;37.644;2023-02-28T17:01:29;10.05;;;4.55;;
75785;SDS011;64402;44.708;37.644;2023-02-28T17:03:56;11.63;;;4.07;;
75785;SDS011;64402;44.708;37.644;2023-02-28T17:06:23;13.63;;;5.32;;
75785;SDS011;64402;44.708;37.644;2023-02-28T17:08:51;13.85;;;5.75;;
75785;SDS011;64402;44.708;37.644;2023-02-28T17:11:18;11.73;;;5.18;;
75785;SDS011;64402;44.708;37.644;2023-02-28T17:13:45;13.23;;;4.75;;
75785;SDS011;64402;44.708;37.644;2023-02-28T17:16:19;9.68;;;5.22;;
75785;SDS011;64402;44.708;37.644;2023-02-28T17:18:57;12.25;;;5.13;;
75785;SDS011;64402;44.708;37.644;2023-02-28T17:21:25;14.98;;;5.45;;
75785;SDS011;64402;44.708;37.644;2023-02-28T17:23:51;10.50;;;4.47;;
75785;SDS011;64402;44.708;37.644;2023-02-28T17:26:18;11.13;;;5.65;;
75785;SDS011;64402;44.708;37.644;2023-02-28T17:28:46;12.32;;;5.18;;